Time;durP1;ratioP1;P1;durP2;ratioP2;P2;SDS_P1;SDS_P2;PMS_P1;PMS_P2;Temp;Humidity;BMP_temperature;BMP_pressure;BME280_temperature;BME280_humidity;BME280_pressure;Samples;Min_cycle;Max_cycle;Signal;HPM_P1;HPM_P2
2021/03/16 00:01:26;;;;;;;32.95;4.35;;;;;;;8.86;64.60;102388.22;5031648;28;20017;-81
2021/03/16 00:03:52;;;;;;;31.70;4.35;;;;;;;8.86;64.50;102380.28;5030353;28;20032;-83
2021/03/16 00:06:19;;;;;;;23.65;4.25;;;;;;;8.85;64.52;102385.56;5014594;28;20061;-82
2021/03/16 00:08:47;;;;;;;35.67;3.85;;;;;;;8.80;64.78;102389.88;5012272;28;20088;-82
2021/03/16 00:11:15;;;;;;;28.80;4.40;;;;;;;8.75;64.78;102389.84;5013685;28;20076;-81
2021/03/16 00:13:42;;;;;;;27.77;3.13;;;;;;;8.87;65.21;102392.63;5014417;28;20030;-81
2021/03/16 00:16:09;;;;;;;19.60;3.17;;;;;;;8.83;65.00;102398.72;5013226;28;20030;-81
2021/03/16 00:18:36;;;;;;;25.40;3.75;;;;;;;8.71;64.98;102395.94;5011141;28;20030;-82
2021/03/16 00:21:02;;;;;;;35.90;4.80;;;;;;;8.81;64.90;102399.59;5013449;28;20022;-82
2021/03/16 00:23:29;;;;;;;13.50;2.97;;;;;;;8.58;64.39;102405.47;5014439;28;20382;-82
2021/03/16 00:25:55;;;;;;;26.60;3.47;;;;;;;8.95;63.70;102407.69;5010081;28;20034;-82
2021/03/16 00:28:22;;;;;;;21.90;3.38;;;;;;;8.99;63.30;102412.16;5013731;28;20468;-82
2021/03/16 00:30:49;;;;;;;17.10;3.25;;;;;;;9.12;63.64;102411.44;5012945;28;20038;-82
2021/03/16 00:33:15;;;;;;;27.85;4.10;;;;;;;9.07;63.92;102414.00;5013392;28;20037;-82
2021/03/16 00:35:41;;;;;;;21.48;4.57;;;;;;;9.10;63.94;102407.88;5016289;28;20087;-82
2021/03/16 00:38:08;;;;;;;27.83;4.93;;;;;;;9.19;63.59;102405.31;5016672;28;20378;-84
2021/03/16 00:40:34;;;;;;;21.92;3.65;;;;;;;9.15;63.33;102411.44;5015961;28;20030;-82
2021/03/16 00:43:01;;;;;;;24.17;4.50;;;;;;;9.21;63.08;102410.66;5016584;28;20070;-83
2021/03/16 00:45:28;;;;;;;32.55;3.47;;;;;;;9.30;63.21;102407.22;5017552;28;20037;-82
2021/03/16 00:47:54;;;;;;;26.80;4.00;;;;;;;9.22;63.42;102404.47;5015871;28;20432;-83
2021/03/16 00:50:21;;;;;;;28.00;3.78;;;;;;;9.26;63.23;102397.44;5015862;28;20057;-83
2021/03/16 00:52:47;;;;;;;32.58;3.20;;;;;;;9.18;63.60;102415.88;5015430;28;20517;-81
2021/03/16 00:55:14;;;;;;;26.65;3.95;;;;;;;9.16;63.17;102414.97;5013246;28;20060;-83
2021/03/16 00:57:40;;;;;;;27.00;4.18;;;;;;;9.06;63.23;102421.94;5017070;28;20064;-83
2021/03/16 01:00:08;;;;;;;16.55;3.40;;;;;;;9.04;63.23;102411.31;5015191;28;20030;-83
2021/03/16 01:02:34;;;;;;;27.00;3.35;;;;;;;9.12;63.21;102422.00;5014994;28;20405;-82
2021/03/16 01:05:01;;;;;;;23.88;3.72;;;;;;;9.19;63.03;102421.19;5016190;28;20034;-84
2021/03/16 01:07:28;;;;;;;26.55;3.75;;;;;;;8.88;64.01;102423.50;5016791;28;20061;-81
2021/03/16 01:09:55;;;;;;;22.98;3.78;;;;;;;9.03;63.58;102428.06;5016335;28;20394;-82
2021/03/16 01:12:23;;;;;;;22.02;3.63;;;;;;;9.01;63.06;102429.81;5015823;28;20026;-82
2021/03/16 01:14:49;;;;;;;17.52;3.97;;;;;;;8.95;63.17;102432.38;5014670;28;20072;-82
2021/03/16 01:17:15;;;;;;;19.55;3.08;;;;;;;8.93;63.83;102426.16;5008958;28;20026;-83
2021/03/16 01:19:42;;;;;;;18.60;3.38;;;;;;;9.02;63.15;102421.00;5017288;28;20444;-82
2021/03/16 01:22:08;;;;;;;16.75;2.85;;;;;;;8.99;63.36;102420.09;5016013;28;20026;-82
2021/03/16 01:24:35;;;;;;;16.05;2.80;;;;;;;8.83;63.12;102419.00;5016627;28;20496;-82
2021/03/16 01:27:01;;;;;;;26.10;3.75;;;;;;;8.94;63.22;102425.31;5013875;28;20575;-82
2021/03/16 01:29:28;;;;;;;21.70;3.10;;;;;;;8.94;63.42;102430.59;5016652;28;20057;-83
2021/03/16 01:31:54;;;;;;;16.42;2.97;;;;;;;8.98;62.73;102419.19;5015521;28;20030;-83
2021/03/16 01:34:21;;;;;;;19.60;5.03;;;;;;;8.92;63.62;102434.09;5015812;28;20428;-82
2021/03/16 01:36:47;;;;;;;25.83;3.70;;;;;;;8.96;63.38;102427.97;5016001;28;20477;-82
2021/03/16 01:39:17;;;;;;;15.18;2.70;;;;;;;9.14;62.60;102430.81;5015940;28;20026;-81
2021/03/16 01:41:49;;;;;;;19.23;2.92;;;;;;;9.13;62.79;102428.16;5016991;28;20105;-81
2021/03/16 01:44:16;;;;;;;23.85;3.47;;;;;;;9.07;62.60;102436.91;5014653;28;20445;-83
2021/03/16 01:46:43;;;;;;;24.85;3.92;;;;;;;9.04;63.21;102429.81;5015581;28;20117;-82
2021/03/16 01:49:10;;;;;;;14.25;2.95;;;;;;;8.95;63.05;102439.41;5013125;28;20129;-82
2021/03/16 01:51:37;;;;;;;20.17;3.83;;;;;;;9.03;63.25;102440.38;5016486;28;20033;-82
2021/03/16 01:54:07;;;;;;;20.83;4.45;;;;;;;9.13;63.07;102429.03;5015826;28;20056;-82
2021/03/16 01:56:41;;;;;;;18.88;2.78;;;;;;;9.22;62.60;102423.88;5015165;28;20042;-83
2021/03/16 01:59:15;;;;;;;15.27;2.88;;;;;;;9.21;62.65;102416.81;5015045;28;20037;-82
2021/03/16 02:01:41;;;;;;;26.65;3.45;;;;;;;9.17;62.75;102419.41;5015858;28;20037;-83
2021/03/16 02:04:08;;;;;;;18.23;3.60;;;;;;;9.18;62.45;102426.47;5014164;28;20034;-83
2021/03/16 02:06:55;;;;;;;24.23;3.22;;;;;;;9.01;62.69;102424.53;5015070;28;20022;-83
2021/03/16 02:09:40;;;;;;;18.95;2.35;;;;;;;9.05;62.32;102426.31;5013288;28;20030;-81
2021/03/16 02:12:25;;;;;;;20.70;3.38;;;;;;;9.18;62.39;102429.09;5014020;28;20029;-85
2021/03/16 02:15:15;;;;;;;19.48;2.78;;;;;;;9.02;63.26;102421.00;5012910;28;20038;-82
2021/03/16 02:17:47;;;;;;;26.65;3.50;;;;;;;9.11;63.25;102421.97;5015103;28;20035;-82
2021/03/16 02:20:53;;;;;;;26.17;4.53;;;;;;;9.20;62.81;102430.03;5014433;28;20504;-82
2021/03/16 02:23:28;;;;;;;26.45;4.25;;;;;;;9.07;63.02;102429.88;5012597;28;20462;-85
2021/03/16 02:26:11;;;;;;;28.48;3.67;;;;;;;8.98;63.33;102434.16;5014879;28;20057;-82
2021/03/16 02:29:03;;;;;;;25.10;3.38;;;;;;;9.05;63.89;102434.25;5011788;28;20405;-81
2021/03/16 02:31:32;;;;;;;25.05;3.90;;;;;;;9.12;63.60;102435.22;5015098;28;20025;-81
2021/03/16 02:34:03;;;;;;;24.80;3.33;;;;;;;9.03;63.70;102432.47;5011434;28;20092;-82
2021/03/16 02:36:31;;;;;;;23.55;2.67;;;;;;;9.01;64.03;102427.16;5014175;28;20109;-82
2021/03/16 02:39:00;;;;;;;18.48;3.25;;;;;;;9.14;63.21;102432.59;5014492;28;20042;-83
2021/03/16 02:41:27;;;;;;;29.15;4.30;;;;;;;9.07;63.10;102424.59;5015155;28;20141;-82
2021/03/16 02:43:54;;;;;;;23.42;4.47;;;;;;;9.11;63.62;102430.81;5013268;28;20026;-83
2021/03/16 02:46:22;;;;;;;19.58;3.55;;;;;;;9.04;63.88;102429.81;5014213;28;20030;-83
2021/03/16 02:48:49;;;;;;;25.67;3.88;;;;;;;9.02;63.51;102439.53;5014361;28;20045;-81
2021/03/16 02:51:17;;;;;;;29.40;4.30;;;;;;;8.95;64.51;102435.03;5013369;28;20762;-82
2021/03/16 02:53:44;;;;;;;27.40;4.65;;;;;;;9.00;64.50;102438.59;5015689;28;20036;-82
2021/03/16 02:56:13;;;;;;;18.13;3.38;;;;;;;9.02;64.58;102441.25;5013458;28;20038;-83
2021/03/16 02:58:40;;;;;;;34.20;4.40;;;;;;;8.92;64.46;102434.09;5010421;28;20030;-82
2021/03/16 03:01:07;;;;;;;24.02;4.13;;;;;;;8.93;65.16;102436.75;5014019;28;20030;-81
2021/03/16 03:03:36;;;;;;;34.05;4.93;;;;;;;8.99;64.53;102434.19;5014041;28;20034;-81
2021/03/16 03:06:04;;;;;;;27.05;3.67;;;;;;;8.95;64.58;102440.31;5013532;28;20394;-81
2021/03/16 03:08:33;;;;;;;26.58;3.38;;;;;;;8.90;65.34;102432.31;5013228;28;20127;-81
2021/03/16 03:11:13;;;;;;;20.65;4.30;;;;;;;9.13;64.07;102436.09;5013703;28;20341;-86
2021/03/16 03:13:40;;;;;;;36.53;3.83;;;;;;;8.98;64.97;102437.69;5013851;28;20050;-81
2021/03/16 03:16:10;;;;;;;29.92;4.32;;;;;;;9.09;64.83;102437.81;5013266;28;20037;-85
2021/03/16 03:18:36;;;;;;;26.63;3.58;;;;;;;9.01;64.35;102437.75;5014110;28;20029;-82
2021/03/16 03:21:12;;;;;;;24.33;3.22;;;;;;;9.05;64.88;102431.59;5014007;28;20473;-84
2021/03/16 03:23:46;;;;;;;29.58;3.90;;;;;;;9.14;64.02;102448.47;5015713;28;20038;-82
2021/03/16 03:26:22;;;;;;;31.80;3.75;;;;;;;9.01;64.84;102445.66;5013021;28;20030;-82
2021/03/16 03:28:48;;;;;;;23.13;3.88;;;;;;;8.84;65.64;102458.66;5013815;28;20048;-82
2021/03/16 03:31:17;;;;;;;25.42;4.30;;;;;;;9.11;64.39;102453.69;5012245;28;20484;-82
2021/03/16 03:33:47;;;;;;;32.78;4.82;;;;;;;9.11;64.50;102453.69;5014100;28;20117;-83
2021/03/16 03:36:13;;;;;;;28.23;3.65;;;;;;;9.13;64.43;102457.25;5009905;28;20105;-82
2021/03/16 03:38:42;;;;;;;28.48;3.65;;;;;;;8.95;65.21;102460.53;5013454;28;20034;-82
2021/03/16 03:41:10;;;;;;;30.70;3.97;;;;;;;9.10;64.47;102459.84;5012611;28;20034;-82
2021/03/16 03:43:38;;;;;;;25.92;4.60;;;;;;;9.04;64.67;102458.03;5028893;28;20088;-86
2021/03/16 03:46:06;;;;;;;26.20;4.05;;;;;;;9.04;64.84;102456.28;5011873;28;20504;-82
2021/03/16 03:48:34;;;;;;;15.10;3.55;;;;;;;8.98;64.59;102465.88;5012763;28;20038;-85
2021/03/16 03:51:03;;;;;;;24.67;3.60;;;;;;;8.94;64.70;102464.97;5012727;28;20485;-82
2021/03/16 03:53:30;;;;;;;31.85;4.22;;;;;;;9.09;64.43;102463.38;5014255;28;20084;-82
2021/03/16 03:55:59;;;;;;;19.00;3.47;;;;;;;9.07;64.42;102464.25;5016190;28;20477;-84
2021/03/16 03:58:26;;;;;;;17.38;2.95;;;;;;;9.07;64.40;102472.19;5010563;28;20052;-82
2021/03/16 04:00:52;;;;;;;19.30;3.22;;;;;;;8.93;64.25;102470.25;5012714;28;20041;-82
2021/03/16 04:03:19;;;;;;;22.35;3.92;;;;;;;9.04;63.97;102461.56;5020439;28;20026;-82
2021/03/16 04:06:06;;;;;;;15.93;3.63;;;;;;;9.00;64.41;102470.31;5028798;28;20033;-80
2021/03/16 04:08:44;;;;;;;23.67;3.60;;;;;;;9.04;63.95;102463.31;5013970;28;20377;-80
2021/03/16 04:11:21;;;;;;;21.92;4.80;;;;;;;9.04;64.01;102472.13;5015963;28;20033;-80
2021/03/16 04:13:49;;;;;;;26.17;3.03;;;;;;;8.95;64.25;102474.66;5016842;28;20473;-82
2021/03/16 04:16:17;;;;;;;25.17;4.18;;;;;;;8.87;65.09;102489.53;5029255;28;20096;-84
2021/03/16 04:18:45;;;;;;;15.10;3.90;;;;;;;8.82;64.84;102491.22;5016624;28;20061;-82
2021/03/16 04:21:13;;;;;;;24.58;2.90;;;;;;;8.89;64.97;102495.75;5031412;28;20079;-81
2021/03/16 04:23:41;;;;;;;30.33;4.38;;;;;;;8.99;64.79;102494.97;5019686;28;20060;-82
2021/03/16 04:26:08;;;;;;;24.52;3.03;;;;;;;8.99;64.72;102494.09;5027938;28;20073;-82
2021/03/16 04:28:34;;;;;;;26.15;3.33;;;;;;;9.03;64.20;102501.19;5014664;28;20084;-81
2021/03/16 04:31:02;;;;;;;15.48;3.38;;;;;;;9.15;64.42;102490.78;5029813;28;20021;-83
2021/03/16 04:33:28;;;;;;;23.92;3.78;;;;;;;9.04;64.10;102501.22;5018305;28;20034;-82
2021/03/16 04:35:55;;;;;;;22.23;2.47;;;;;;;9.12;64.06;102500.44;5016116;28;20034;-82
2021/03/16 04:38:22;;;;;;;29.50;4.75;;;;;;;9.01;64.36;102498.53;5016292;28;20026;-82
2021/03/16 04:40:48;;;;;;;26.00;3.95;;;;;;;9.04;64.32;102500.34;5016370;28;20041;-82
2021/03/16 04:43:15;;;;;;;27.98;3.53;;;;;;;9.09;64.83;102506.56;5016545;28;20040;-81
2021/03/16 04:45:41;;;;;;;24.13;3.08;;;;;;;9.23;64.18;102493.50;5018713;28;20033;-82
2021/03/16 04:48:08;;;;;;;30.58;3.20;;;;;;;9.19;64.47;102497.88;5016079;28;20109;-81
2021/03/16 04:50:34;;;;;;;23.83;3.60;;;;;;;9.21;63.86;102496.16;5019548;28;20493;-82
2021/03/16 04:53:00;;;;;;;27.23;5.05;;;;;;;9.28;63.97;102497.09;5023524;28;20044;-81
2021/03/16 04:55:27;;;;;;;37.13;4.10;;;;;;;9.26;64.34;102504.16;5019357;28;20565;-81
2021/03/16 04:57:54;;;;;;;30.48;3.53;;;;;;;9.21;64.41;102503.22;5031652;28;20030;-82
2021/03/16 05:00:20;;;;;;;25.38;3.70;;;;;;;9.18;64.60;102503.16;5023490;28;20025;-81
2021/03/16 05:02:46;;;;;;;24.25;3.30;;;;;;;9.17;64.57;102514.59;5026289;28;20030;-81
2021/03/16 05:05:13;;;;;;;26.10;2.88;;;;;;;9.18;64.52;102512.00;5031881;28;20032;-81
2021/03/16 05:07:43;;;;;;;24.88;4.13;;;;;;;9.31;63.63;102518.31;5019288;28;20041;-79
2021/03/16 05:10:10;;;;;;;18.73;3.17;;;;;;;9.30;63.62;102515.66;5025962;28;20056;-81
2021/03/16 05:12:36;;;;;;;19.30;3.35;;;;;;;9.21;63.97;102525.25;5028247;28;20032;-81
2021/03/16 05:15:04;;;;;;;30.95;3.75;;;;;;;9.26;63.66;102524.41;5021382;28;20520;-81
2021/03/16 05:17:30;;;;;;;15.27;3.05;;;;;;;9.26;63.80;102529.69;5032028;28;20044;-81
2021/03/16 05:19:56;;;;;;;24.42;4.25;;;;;;;9.24;64.22;102534.97;5015429;28;20024;-82
2021/03/16 05:22:22;;;;;;;21.58;3.38;;;;;;;9.11;64.21;102530.38;5023724;28;20063;-81
2021/03/16 05:24:50;;;;;;;28.38;3.60;;;;;;;9.21;63.74;102532.31;5018812;28;20105;-84
2021/03/16 05:27:16;;;;;;;25.85;3.40;;;;;;;9.12;64.00;102526.88;5030866;28;20033;-81
2021/03/16 05:29:42;;;;;;;25.77;3.65;;;;;;;9.18;63.90;102530.50;5017992;28;20033;-82
2021/03/16 05:32:08;;;;;;;24.00;3.53;;;;;;;9.11;64.20;102535.66;5026422;28;20033;-82
2021/03/16 05:34:34;;;;;;;29.58;3.33;;;;;;;9.12;63.67;102526.88;5025158;28;20508;-82
2021/03/16 05:37:01;;;;;;;28.90;2.92;;;;;;;9.13;64.03;102539.22;5028852;28;20060;-82
2021/03/16 05:39:27;;;;;;;22.98;3.03;;;;;;;8.84;65.46;102539.72;5018113;28;20058;-81
2021/03/16 05:41:54;;;;;;;18.40;3.00;;;;;;;8.73;65.54;102540.47;5019442;28;20108;-80
2021/03/16 05:44:22;;;;;;;22.52;4.80;;;;;;;8.83;65.23;102535.31;5027481;28;20034;-81
2021/03/16 05:46:48;;;;;;;24.27;3.55;;;;;;;8.89;65.13;102532.75;5016409;28;20049;-80
2021/03/16 05:49:17;;;;;;;24.15;3.97;;;;;;;8.85;65.17;102539.75;5029833;28;20030;-82
2021/03/16 05:51:44;;;;;;;33.22;3.85;;;;;;;8.88;65.18;102534.50;5020363;28;20044;-81
2021/03/16 05:54:10;;;;;;;31.80;3.95;;;;;;;8.88;65.48;102539.81;5029373;28;20029;-80
2021/03/16 05:56:37;;;;;;;32.75;5.63;;;;;;;8.80;65.63;102537.88;5023986;28;20477;-81
2021/03/16 05:59:04;;;;;;;21.42;4.30;;;;;;;8.65;66.28;102542.09;5028369;28;20033;-81
2021/03/16 06:01:30;;;;;;;25.60;3.90;;;;;;;8.81;66.20;102547.59;5017271;28;20026;-81
2021/03/16 06:03:56;;;;;;;28.80;3.03;;;;;;;8.90;65.52;102542.47;5026652;28;20118;-82
2021/03/16 06:06:23;;;;;;;23.63;3.53;;;;;;;8.91;65.82;102538.94;5012613;28;20025;-82
2021/03/16 06:08:49;;;;;;;35.53;3.50;;;;;;;9.01;65.73;102540.84;5013957;28;20034;-80
2021/03/16 06:11:15;;;;;;;28.02;3.58;;;;;;;8.88;65.78;102539.81;5020130;28;20229;-81
2021/03/16 06:13:50;;;;;;;24.13;3.95;;;;;;;9.05;65.55;102542.66;5030605;28;20072;-81
2021/03/16 06:16:18;;;;;;;36.10;4.80;;;;;;;9.05;65.39;102537.38;5021669;28;20049;-81
2021/03/16 06:18:46;;;;;;;17.88;3.20;;;;;;;9.02;65.96;102536.44;5019717;28;20172;-81
2021/03/16 06:21:21;;;;;;;20.52;3.22;;;;;;;9.04;65.77;102538.22;5019967;28;20030;-81
2021/03/16 06:23:57;;;;;;;26.85;3.08;;;;;;;9.04;65.56;102551.44;4997474;28;20106;-81
2021/03/16 06:26:25;;;;;;;23.05;3.80;;;;;;;8.97;66.31;102541.69;5013462;28;20105;-81
2021/03/16 06:29:02;;;;;;;21.27;3.40;;;;;;;8.99;65.62;102542.56;5014886;28;20096;-80
2021/03/16 06:31:30;;;;;;;16.77;3.70;;;;;;;9.01;65.56;102535.56;5014112;28;20033;-84
2021/03/16 06:33:56;;;;;;;27.20;3.90;;;;;;;9.07;66.03;102529.44;5014851;28;20038;-81
2021/03/16 06:36:29;;;;;;;24.33;3.85;;;;;;;9.12;66.05;102537.44;5016018;28;20393;-81
2021/03/16 06:38:55;;;;;;;;;;;;;;;9.24;65.53;102542.91;5016733;28;20125;-80
2021/03/16 06:41:23;;;;;;;21.75;4.15;;;;;;;9.07;65.25;102551.50;5015199;28;19944;-82
2021/03/16 06:43:59;;;;;;;34.50;3.35;;;;;;;9.16;65.21;102550.75;5013487;28;20030;-81
2021/03/16 06:49:15;;;;;;;26.50;3.28;;;;;;;9.13;65.87;102550.69;5120897;27;20388;-81
2021/03/16 06:51:41;;;;;;;22.15;2.78;;;;;;;9.15;65.29;102548.97;5118216;28;20039;-80
2021/03/16 06:54:17;;;;;;;29.77;4.00;;;;;;;9.11;65.99;102547.16;5116645;28;20531;-80
2021/03/16 06:56:54;;;;;;;23.65;3.95;;;;;;;9.19;65.49;102547.25;5102896;28;20032;-80
2021/03/16 06:59:24;;;;;;;22.20;3.30;;;;;;;9.16;65.82;102550.75;5099872;28;20038;-81
2021/03/16 07:01:52;;;;;;;14.13;2.78;;;;;;;9.22;65.30;102555.22;5087509;28;20016;-81
2021/03/16 07:04:21;;;;;;;23.50;4.65;;;;;;;9.23;65.52;102552.63;5099677;28;20067;-81
2021/03/16 07:06:48;;;;;;;23.08;3.15;;;;;;;9.27;65.38;102563.22;5098736;28;20028;-82
2021/03/16 07:09:16;;;;;;;25.60;3.28;;;;;;;9.25;65.13;102560.56;5106210;28;20077;-81
2021/03/16 07:11:49;;;;;;;30.38;4.03;;;;;;;9.22;65.76;102560.50;5093150;28;20020;-82
2021/03/16 07:14:18;;;;;;;19.88;3.83;;;;;;;9.24;65.71;102556.13;5088786;28;20371;-90
2021/03/16 07:16:45;;;;;;;20.63;3.20;;;;;;;9.29;64.88;102554.44;5084810;28;20032;-82
2021/03/16 07:19:13;;;;;;;28.38;4.68;;;;;;;9.27;65.47;102558.84;5086681;28;20039;-81
2021/03/16 07:21:50;;;;;;;30.35;3.83;;;;;;;9.20;65.87;102563.13;5090874;28;20032;-82
2021/03/16 07:24:19;;;;;;;19.63;3.13;;;;;;;9.32;65.06;102570.34;5095112;28;20024;-81
2021/03/16 07:26:45;;;;;;;26.40;3.40;;;;;;;9.44;64.77;102566.09;5096002;28;20771;-81
2021/03/16 07:29:11;;;;;;;30.88;3.65;;;;;;;9.45;65.10;102566.09;5085634;28;20028;-82
2021/03/16 07:31:41;;;;;;;22.48;3.92;;;;;;;9.49;65.02;102569.66;5090466;28;20037;-82
2021/03/16 07:34:08;;;;;;;23.25;2.90;;;;;;;9.52;64.74;102564.41;5088624;28;20036;-85
2021/03/16 07:36:38;;;;;;;30.30;4.68;;;;;;;9.65;64.60;102579.56;5098116;28;20030;-81
2021/03/16 07:39:12;;;;;;;24.00;3.97;;;;;;;9.69;64.32;102573.47;5089265;28;20028;-82
2021/03/16 07:41:40;;;;;;;31.95;4.25;;;;;;;9.57;65.16;102586.53;5090714;28;20179;-80
2021/03/16 07:47:08;;;;;;;31.60;5.05;;;;;;;9.75;64.59;102584.97;5060689;27;20178;-86
2021/03/16 07:49:38;;;;;;;22.92;3.35;;;;;;;9.74;64.75;102581.44;5061229;28;20549;-83
2021/03/16 07:52:16;;;;;;;24.17;4.35;;;;;;;9.85;64.73;102570.97;5063058;28;20541;-86
2021/03/16 07:54:47;;;;;;;23.98;3.72;;;;;;;9.84;64.65;102577.13;5056895;28;20389;-84
2021/03/16 07:57:24;;;;;;;23.20;3.97;;;;;;;9.75;64.90;102574.41;5049749;28;20029;-83
2021/03/16 07:59:59;;;;;;;31.35;4.10;;;;;;;9.82;64.89;102586.81;5046009;28;20025;-81
2021/03/16 08:02:28;;;;;;;20.90;3.92;;;;;;;9.92;64.42;102590.44;5051443;28;20052;-92
2021/03/16 08:04:54;;;;;;;26.73;4.05;;;;;;;9.86;64.60;102591.28;5047898;28;20106;-81
2021/03/16 08:07:27;;;;;;;23.67;2.85;;;;;;;9.96;64.14;102587.84;5025765;28;20083;-83
2021/03/16 08:09:58;;;;;;;25.90;2.90;;;;;;;9.98;64.10;102602.00;5042092;28;20041;-81
2021/03/16 08:12:27;;;;;;;26.30;3.33;;;;;;;9.90;63.83;102598.38;5043961;28;21506;-81
2021/03/16 08:14:55;;;;;;;17.15;3.10;;;;;;;9.97;64.07;102594.03;5054128;28;20061;-83
2021/03/16 08:17:28;;;;;;;15.30;2.90;;;;;;;9.93;64.00;102593.13;5042679;28;20036;-83
2021/03/16 08:19:55;;;;;;;19.55;2.88;;;;;;;9.90;64.18;102587.78;5039049;28;20057;-82
2021/03/16 08:22:22;;;;;;;22.20;3.05;;;;;;;9.95;63.99;102588.72;5038400;28;20038;-82
2021/03/16 08:25:12;;;;;;;18.67;3.03;;;;;;;9.96;63.57;102595.78;5042709;28;20532;-85
2021/03/16 08:27:39;;;;;;;23.77;4.57;;;;;;;9.85;64.00;102597.44;5046231;28;20120;-88
2021/03/16 08:30:11;;;;;;;46.13;21.70;;;;;;;9.59;63.97;102605.94;5049191;28;20029;-84
2021/03/16 08:32:38;;;;;;;13.80;3.13;;;;;;;9.59;63.53;102600.66;5028365;28;20481;-84
2021/03/16 08:35:05;;;;;;;9.55;2.35;;;;;;;9.75;62.85;102600.88;5033734;28;20136;-83
2021/03/16 08:37:33;;;;;;;17.13;2.47;;;;;;;9.60;62.52;102599.78;5045239;28;20030;-83
2021/03/16 08:40:03;;;;;;;5.82;1.42;;;;;;;9.71;61.44;102600.81;5043716;28;20025;-87
2021/03/16 08:42:29;;;;;;;14.40;2.10;;;;;;;9.78;61.66;102608.81;5040607;28;20439;-81
2021/03/16 08:44:56;;;;;;;16.65;1.75;;;;;;;9.76;61.40;102611.47;5039921;28;20041;-85
2021/03/16 08:47:24;;;;;;;16.38;2.20;;;;;;;9.64;61.86;102617.47;5042657;28;20040;-82
2021/03/16 08:49:54;;;;;;;14.38;2.80;;;;;;;9.66;62.30;102614.88;5042208;28;21307;-82
2021/03/16 08:55:37;;;;;;;9.07;1.77;;;;;;;9.62;61.04;102621.88;5022854;28;20420;-82
2021/03/16 08:58:10;;;;;;;8.20;2.10;;;;;;;9.41;60.24;102624.22;5030020;28;20110;-81
2021/03/16 09:00:41;;;;;;;8.52;1.27;;;;;;;9.43;60.16;102627.81;5033867;28;20041;-85
2021/03/16 09:03:08;;;;;;;8.80;1.92;;;;;;;9.49;60.69;102628.75;5029887;28;20033;-81
2021/03/16 09:05:35;;;;;;;9.55;1.45;;;;;;;9.61;60.10;102625.41;5021294;28;20404;-84
2021/03/16 09:08:04;;;;;;;8.65;1.13;;;;;;;9.56;60.28;102619.16;5003813;28;20128;-81
2021/03/16 09:10:32;;;;;;;8.85;1.65;;;;;;;9.61;60.98;102630.69;5018349;28;20025;-82
2021/03/16 09:13:00;;;;;;;14.23;1.67;;;;;;;9.62;61.04;102627.19;5018553;28;20040;-82
2021/03/16 09:15:29;;;;;;;9.60;2.03;;;;;;;9.66;61.11;102626.34;5028367;28;20037;-87
2021/03/16 09:18:03;;;;;;;3.67;1.10;;;;;;;9.71;61.52;102629.06;5032328;28;20116;-82
2021/03/16 09:20:36;;;;;;;10.77;1.33;;;;;;;9.79;61.67;102629.13;5028372;28;20134;-81
2021/03/16 09:23:09;;;;;;;15.27;1.58;;;;;;;9.67;61.73;102628.13;5040749;28;20436;-83
2021/03/16 09:25:39;;;;;;;9.05;1.45;;;;;;;9.79;61.95;102622.06;5020029;28;20115;-87
2021/03/16 09:28:08;;;;;;;5.97;1.50;;;;;;;9.64;62.34;102630.72;5033648;28;20037;-82
2021/03/16 09:33:21;;;;;;;12.23;1.67;;;;;;;9.61;62.03;102620.09;5060387;27;773896;-83
2021/03/16 09:35:56;;;;;;;177.57;82.32;;;;;;;9.46;63.07;102622.53;5076926;28;20052;-81
2021/03/16 09:38:22;;;;;;;12.30;2.78;;;;;;;9.35;63.51;102617.13;5069353;28;20037;-81
2021/03/16 09:40:49;;;;;;;12.77;1.88;;;;;;;9.52;62.96;102607.66;5068363;28;20028;-83
2021/03/16 09:43:36;;;;;;;8.40;1.50;;;;;;;9.61;63.39;102619.19;5068347;28;20029;-81
2021/03/16 09:46:06;;;;;;;13.80;2.03;;;;;;;9.57;63.46;102610.34;5066242;28;20119;-81
2021/03/16 09:48:33;;;;;;;9.43;1.45;;;;;;;9.48;63.43;102612.88;5065410;28;20112;-81
2021/03/16 09:51:09;;;;;;;15.60;1.95;;;;;;;9.28;63.97;102625.84;5067595;28;20029;-81
2021/03/16 09:53:35;;;;;;;10.98;1.55;;;;;;;9.43;63.06;102618.09;5068397;28;20554;-81
2021/03/16 09:56:06;;;;;;;8.73;1.40;;;;;;;9.45;63.82;102620.78;5068245;28;20029;-81
2021/03/16 09:58:32;;;;;;;4.72;1.45;;;;;;;9.52;62.89;102618.22;5064373;28;20043;-81
2021/03/16 10:01:03;;;;;;;8.55;1.48;;;;;;;9.71;62.76;102624.63;5064921;28;20067;-84
2021/03/16 10:03:29;;;;;;;6.82;1.23;;;;;;;9.64;63.24;102621.91;5057181;28;20041;-81
2021/03/16 10:06:06;;;;;;;8.43;1.38;;;;;;;9.70;61.71;102628.16;5067548;28;20028;-82
2021/03/16 10:08:33;;;;;;;8.85;1.67;;;;;;;9.77;61.58;102623.84;5048718;28;20036;-82
2021/03/16 10:10:59;;;;;;;7.38;1.00;;;;;;;9.60;62.32;102615.69;5065397;28;20021;-82
2021/03/16 10:13:32;;;;;;;11.68;1.35;;;;;;;9.69;61.83;102625.47;5058872;28;20047;-83
2021/03/16 10:16:10;;;;;;;5.57;1.27;;;;;;;9.89;61.16;102612.47;5066762;28;20476;-82
2021/03/16 10:18:39;;;;;;;6.97;1.00;;;;;;;9.97;61.42;102615.22;5064091;28;20040;-82
2021/03/16 10:21:05;;;;;;;7.88;1.30;;;;;;;10.01;61.30;102620.56;5063663;28;20033;-83
2021/03/16 10:23:32;;;;;;;4.90;1.13;;;;;;;9.79;61.15;102616.78;5067453;28;20040;-82
2021/03/16 10:26:03;;;;;;;7.00;1.30;;;;;;;9.76;61.52;102615.84;5059585;28;20159;-83
2021/03/16 10:28:36;;;;;;;4.57;1.25;;;;;;;9.95;61.48;102609.91;5058752;28;20120;-82
2021/03/16 10:31:19;;;;;;;8.40;1.42;;;;;;;10.14;60.86;102612.75;5067813;28;20036;-85
2021/03/16 10:33:47;;;;;;;7.57;1.20;;;;;;;10.07;60.77;102611.81;5066241;28;20037;-84
2021/03/16 10:36:15;;;;;;;7.80;1.30;;;;;;;10.12;60.36;102609.19;5062832;28;20033;-83
2021/03/16 10:38:41;;;;;;;7.68;1.40;;;;;;;10.09;60.43;102609.16;5066233;28;20036;-84
2021/03/16 10:41:09;;;;;;;14.18;6.10;;;;;;;10.17;60.50;102616.31;5064556;28;20101;-83
2021/03/16 10:43:35;;;;;;;7.15;1.30;;;;;;;10.14;60.29;102612.75;5059174;28;20045;-90
2021/03/16 10:46:03;;;;;;;6.22;1.17;;;;;;;10.08;60.92;102615.34;5039868;28;20139;-83
2021/03/16 10:48:29;;;;;;;4.07;2.08;;;;;;;10.30;60.24;102616.44;5050374;28;20033;-81
2021/03/16 10:50:57;;;;;;;4.95;1.52;;;;;;;10.35;60.75;102620.94;5052483;28;20029;-87
2021/03/16 10:53:23;;;;;;;6.60;1.13;;;;;;;10.34;60.84;102608.53;5053973;28;20044;-81
2021/03/16 10:55:49;;;;;;;6.65;0.95;;;;;;;10.46;60.56;102609.56;5052428;28;20415;-82
2021/03/16 10:58:17;;;;;;;5.32;0.98;;;;;;;10.45;60.71;102607.78;5052470;28;20186;-84
2021/03/16 11:00:44;;;;;;;4.30;1.13;;;;;;;10.31;60.85;102613.81;5040483;28;20045;-81
2021/03/16 11:03:10;;;;;;;6.07;1.23;;;;;;;10.22;61.11;102632.28;5052090;28;20458;-83
2021/03/16 11:05:37;;;;;;;12.43;1.85;;;;;;;10.11;61.71;102621.56;5048075;28;20579;-83
2021/03/16 11:08:04;;;;;;;7.78;1.50;;;;;;;10.14;61.57;102626.00;5035417;28;20049;-83
2021/03/16 11:10:30;;;;;;;4.93;1.45;;;;;;;9.81;61.99;102619.47;5050597;28;20052;-82
2021/03/16 11:12:57;;;;;;;3.70;1.13;;;;;;;10.00;61.82;102621.44;5026569;28;20078;-82
2021/03/16 11:15:23;;;;;;;4.63;1.20;;;;;;;9.90;61.75;102608.97;5044001;28;20123;-82
2021/03/16 11:17:49;;;;;;;4.63;1.20;;;;;;;9.84;61.13;102630.97;5041102;28;20036;-83
2021/03/16 11:20:17;;;;;;;5.47;1.30;;;;;;;9.95;61.30;102612.56;5041159;28;20041;-82
2021/03/16 11:22:44;;;;;;;3.30;1.83;;;;;;;9.98;61.09;102622.28;5043095;28;20029;-82
2021/03/16 11:25:11;;;;;;;5.07;1.00;;;;;;;10.07;60.61;102608.25;5046598;28;20033;-82
2021/03/16 11:27:38;;;;;;;8.20;1.17;;;;;;;10.25;60.43;102600.50;5045027;28;20032;-84
2021/03/16 11:30:07;;;;;;;4.60;1.10;;;;;;;10.14;60.60;102600.41;5047933;28;20112;-82
2021/03/16 11:32:34;;;;;;;4.78;1.10;;;;;;;10.14;60.31;102608.34;5049909;28;20122;-80
2021/03/16 11:35:01;;;;;;;3.47;0.98;;;;;;;10.24;59.49;102604.00;5053179;28;20487;-82
2021/03/16 11:37:32;;;;;;;9.77;2.05;;;;;;;10.22;59.20;102605.78;5050530;28;20039;-82
2021/03/16 11:39:59;;;;;;;5.65;1.48;;;;;;;10.03;59.69;102599.38;5032148;28;20445;-83
2021/03/16 11:42:25;;;;;;;4.05;0.88;;;;;;;10.17;59.50;102599.56;5050975;28;20143;-82
2021/03/16 11:44:51;;;;;;;2.50;0.82;;;;;;;10.24;59.61;102598.72;5052694;28;20047;-82
2021/03/16 11:47:18;;;;;;;8.20;2.20;;;;;;;10.35;59.88;102594.44;5051171;28;20399;-82